Buckley Air Force Base
KBKF : now visible

Airfield :











YOU CAN JOIN US ON...

 
LOGIN :

Register | Disclaimer

   EN    FR    IT 

 









Legend :    VFR   Marginal VFR   IFR   Intensive IFR   Very Intensive IFR
Visi :
Ceiling :
>= 8 km
>= 3000ft
5 to 8 km
1000 to 3000 ft
1500m to 5 km
500 to 1000 ft
800 to 1500m
200 to 500 ft
< 800m
< 200 ft
Symbols :   Thunderstorms  Fog  Heavy snow  Heavy precipitations  Wind > 20 kt






- Airport Elevation : 5662 ft


KBKF - Buckley Air Force Base

CURRENT METAR :
  • 291258Z 19005KT 10SM FEW110 FEW220 13/09 A3026 RMK AO2A SLP189 T01330093

EXPIRED METARs :
  • 291158Z 21005KT 10SM FEW220 12/08 A3026 RMK AO2A SLP189 T01210084 10165 20120 57005
  • 291058Z 23004KT 10SM CLR 13/08 A3026 RMK AO2A SLP185 T01310084

TAF TAF KBKF
Valid from the 29 at 09:00 until the 30 at 15:00 UTC


290906Z 2909/3015 23009KT 9999 FEW100 QNH3024INS
TEMPO 2911/2916 BKN010
BECMG 2916/2917 15009KT 9999 VCTS BKN100CB BKN150 QNH3012INS
TEMPO 2921/3006 VRB30G40KT 6000 -TSRA BKN080CB
BECMG 3006/3007 23009KT 9999 NSW SCT150 QNH3012INS TX30/2922Z TN12/2911Z
KZDV FIR / North America



MET'MAP, your aeronautical weather chart ! - Copyright ORBIFLY December 2007 - Disclaimer

ORBIFLY MET'MAP TEAM :

Programming & Development : Alexandra Zaïnal
Concept & original design : Baudouin d'Aumeries
Assistance for programming : Marc-Olivier Méhu
Technical & hardware support : Manuel Goepfert

Contact : metmap@orbifly.com




SOURCES & CREDITS :

   NOAA       Earth
Advisory